sensor_id;sensor_type;location;lat;lon;timestamp;P1;durP1;ratioP1;P2;durP2;ratioP2
56991;SDS011;42885;49.754;18.636;2022-07-30T00:02:23;4.87;;;3.80;;
56991;SDS011;42885;49.754;18.636;2022-07-30T00:04:54;3.62;;;3.33;;
56991;SDS011;42885;49.754;18.636;2022-07-30T00:07:24;7.05;;;3.92;;
56991;SDS011;42885;49.754;18.636;2022-07-30T00:09:55;4.72;;;4.25;;
56991;SDS011;42885;49.754;18.636;2022-07-30T00:12:26;5.25;;;4.17;;
56991;SDS011;42885;49.754;18.636;2022-07-30T00:14:57;6.50;;;3.75;;
56991;SDS011;42885;49.754;18.636;2022-07-30T00:17:28;4.60;;;3.90;;
56991;SDS011;42885;49.754;18.636;2022-07-30T00:19:58;4.50;;;4.08;;
56991;SDS011;42885;49.754;18.636;2022-07-30T00:22:29;4.17;;;3.77;;
56991;SDS011;42885;49.754;18.636;2022-07-30T00:25:00;5.92;;;3.87;;
56991;SDS011;42885;49.754;18.636;2022-07-30T00:27:32;4.00;;;3.60;;
56991;SDS011;42885;49.754;18.636;2022-07-30T00:30:03;4.30;;;3.90;;
56991;SDS011;42885;49.754;18.636;2022-07-30T00:32:34;4.08;;;3.42;;
56991;SDS011;42885;49.754;18.636;2022-07-30T00:35:05;4.83;;;3.60;;
56991;SDS011;42885;49.754;18.636;2022-07-30T00:37:37;4.10;;;3.75;;
56991;SDS011;42885;49.754;18.636;2022-07-30T00:40:08;5.08;;;3.80;;
56991;SDS011;42885;49.754;18.636;2022-07-30T00:42:47;4.75;;;3.50;;
56991;SDS011;42885;49.754;18.636;2022-07-30T00:45:16;6.33;;;3.52;;
56991;SDS011;42885;49.754;18.636;2022-07-30T00:47:47;5.40;;;3.58;;
56991;SDS011;42885;49.754;18.636;2022-07-30T00:50:18;4.15;;;3.75;;
56991;SDS011;42885;49.754;18.636;2022-07-30T00:52:49;5.22;;;3.85;;
56991;SDS011;42885;49.754;18.636;2022-07-30T00:55:20;4.40;;;4.00;;
56991;SDS011;42885;49.754;18.636;2022-07-30T00:57:50;5.12;;;4.62;;
56991;SDS011;42885;49.754;18.636;2022-07-30T01:00:21;5.72;;;4.65;;
56991;SDS011;42885;49.754;18.636;2022-07-30T01:02:52;4.97;;;4.58;;
56991;SDS011;42885;49.754;18.636;2022-07-30T01:05:23;5.55;;;4.67;;
56991;SDS011;42885;49.754;18.636;2022-07-30T01:07:54;7.60;;;5.28;;
56991;SDS011;42885;49.754;18.636;2022-07-30T01:10:25;9.65;;;4.85;;
56991;SDS011;42885;49.754;18.636;2022-07-30T01:12:56;6.08;;;4.83;;
56991;SDS011;42885;49.754;18.636;2022-07-30T01:15:27;5.53;;;4.62;;
56991;SDS011;42885;49.754;18.636;2022-07-30T01:17:59;6.00;;;5.40;;
56991;SDS011;42885;49.754;18.636;2022-07-30T01:20:37;5.60;;;5.08;;
56991;SDS011;42885;49.754;18.636;2022-07-30T01:23:26;5.97;;;5.08;;
56991;SDS011;42885;49.754;18.636;2022-07-30T01:26:04;8.13;;;5.83;;
56991;SDS011;42885;49.754;18.636;2022-07-30T01:28:42;6.60;;;5.80;;
56991;SDS011;42885;49.754;18.636;2022-07-30T01:31:12;6.05;;;5.20;;
56991;SDS011;42885;49.754;18.636;2022-07-30T01:33:45;5.27;;;4.77;;
56991;SDS011;42885;49.754;18.636;2022-07-30T01:36:20;7.17;;;5.20;;
56991;SDS011;42885;49.754;18.636;2022-07-30T01:38:51;5.37;;;4.47;;
56991;SDS011;42885;49.754;18.636;2022-07-30T01:41:23;8.10;;;4.28;;
56991;SDS011;42885;49.754;18.636;2022-07-30T01:43:54;4.78;;;4.37;;
56991;SDS011;42885;49.754;18.636;2022-07-30T01:46:25;5.37;;;4.50;;
56991;SDS011;42885;49.754;18.636;2022-07-30T01:48:57;12.00;;;4.58;;
56991;SDS011;42885;49.754;18.636;2022-07-30T01:51:31;4.50;;;4.10;;
56991;SDS011;42885;49.754;18.636;2022-07-30T01:54:05;5.00;;;4.10;;
56991;SDS011;42885;49.754;18.636;2022-07-30T01:56:40;7.00;;;4.22;;
56991;SDS011;42885;49.754;18.636;2022-07-30T01:59:12;7.00;;;3.92;;
56991;SDS011;42885;49.754;18.636;2022-07-30T02:01:46;5.33;;;4.53;;
56991;SDS011;42885;49.754;18.636;2022-07-30T02:04:17;6.03;;;4.60;;
56991;SDS011;42885;49.754;18.636;2022-07-30T02:06:51;4.75;;;4.20;;
56991;SDS011;42885;49.754;18.636;2022-07-30T02:09:27;8.25;;;4.30;;
56991;SDS011;42885;49.754;18.636;2022-07-30T02:12:00;4.40;;;4.00;;
56991;SDS011;42885;49.754;18.636;2022-07-30T02:14:54;6.35;;;4.55;;
56991;SDS011;42885;49.754;18.636;2022-07-30T02:17:49;6.22;;;4.67;;
56991;SDS011;42885;49.754;18.636;2022-07-30T02:20:18;11.18;;;5.10;;
56991;SDS011;42885;49.754;18.636;2022-07-30T02:22:52;5.47;;;4.70;;
56991;SDS011;42885;49.754;18.636;2022-07-30T02:25:25;9.20;;;5.28;;
56991;SDS011;42885;49.754;18.636;2022-07-30T02:27:59;8.00;;;4.42;;
56991;SDS011;42885;49.754;18.636;2022-07-30T02:30:32;7.70;;;4.87;;
56991;SDS011;42885;49.754;18.636;2022-07-30T02:33:06;5.62;;;5.03;;
56991;SDS011;42885;49.754;18.636;2022-07-30T02:35:41;8.35;;;5.35;;
56991;SDS011;42885;49.754;18.636;2022-07-30T02:38:12;6.12;;;5.53;;
56991;SDS011;42885;49.754;18.636;2022-07-30T02:40:44;10.47;;;5.50;;
56991;SDS011;42885;49.754;18.636;2022-07-30T02:43:16;7.50;;;5.73;;
56991;SDS011;42885;49.754;18.636;2022-07-30T02:45:49;7.80;;;5.97;;
56991;SDS011;42885;49.754;18.636;2022-07-30T02:48:20;9.98;;;6.00;;
56991;SDS011;42885;49.754;18.636;2022-07-30T02:50:55;7.37;;;6.25;;
56991;SDS011;42885;49.754;18.636;2022-07-30T02:53:29;11.57;;;6.00;;
56991;SDS011;42885;49.754;18.636;2022-07-30T02:56:02;6.85;;;5.62;;
56991;SDS011;42885;49.754;18.636;2022-07-30T02:58:34;8.43;;;5.78;;
56991;SDS011;42885;49.754;18.636;2022-07-30T03:01:06;11.73;;;5.70;;
56991;SDS011;42885;49.754;18.636;2022-07-30T03:03:41;10.88;;;5.60;;
56991;SDS011;42885;49.754;18.636;2022-07-30T03:06:14;6.97;;;4.97;;
56991;SDS011;42885;49.754;18.636;2022-07-30T03:08:45;10.08;;;4.78;;
56991;SDS011;42885;49.754;18.636;2022-07-30T03:11:17;7.15;;;4.97;;
56991;SDS011;42885;49.754;18.636;2022-07-30T03:13:49;6.57;;;4.80;;
56991;SDS011;42885;49.754;18.636;2022-07-30T03:16:21;12.35;;;6.50;;
56991;SDS011;42885;49.754;18.636;2022-07-30T03:18:53;7.72;;;5.33;;
56991;SDS011;42885;49.754;18.636;2022-07-30T03:21:26;6.40;;;5.90;;
56991;SDS011;42885;49.754;18.636;2022-07-30T03:24:02;7.70;;;5.95;;
56991;SDS011;42885;49.754;18.636;2022-07-30T03:26:35;6.55;;;5.78;;
56991;SDS011;42885;49.754;18.636;2022-07-30T03:29:08;5.85;;;5.25;;
56991;SDS011;42885;49.754;18.636;2022-07-30T03:31:42;8.78;;;5.78;;
56991;SDS011;42885;49.754;18.636;2022-07-30T03:34:13;8.50;;;6.17;;
56991;SDS011;42885;49.754;18.636;2022-07-30T03:36:45;6.47;;;5.87;;
56991;SDS011;42885;49.754;18.636;2022-07-30T03:39:15;6.37;;;5.78;;
56991;SDS011;42885;49.754;18.636;2022-07-30T03:41:48;8.15;;;5.95;;
56991;SDS011;42885;49.754;18.636;2022-07-30T03:44:19;9.18;;;5.95;;
56991;SDS011;42885;49.754;18.636;2022-07-30T03:46:51;8.40;;;6.28;;
56991;SDS011;42885;49.754;18.636;2022-07-30T03:49:24;10.63;;;6.37;;
56991;SDS011;42885;49.754;18.636;2022-07-30T03:51:57;7.65;;;6.60;;
56991;SDS011;42885;49.754;18.636;2022-07-30T03:54:35;7.72;;;6.92;;
56991;SDS011;42885;49.754;18.636;2022-07-30T03:57:13;7.75;;;6.75;;
56991;SDS011;42885;49.754;18.636;2022-07-30T03:59:47;8.33;;;6.83;;
56991;SDS011;42885;49.754;18.636;2022-07-30T04:02:20;7.60;;;6.85;;
56991;SDS011;42885;49.754;18.636;2022-07-30T04:04:58;8.53;;;7.40;;
56991;SDS011;42885;49.754;18.636;2022-07-30T04:07:29;9.70;;;7.40;;
56991;SDS011;42885;49.754;18.636;2022-07-30T04:10:00;9.18;;;7.30;;
56991;SDS011;42885;49.754;18.636;2022-07-30T04:12:36;12.55;;;7.90;;
56991;SDS011;42885;49.754;18.636;2022-07-30T04:15:08;9.85;;;8.23;;
56991;SDS011;42885;49.754;18.636;2022-07-30T04:17:43;9.53;;;8.43;;
56991;SDS011;42885;49.754;18.636;2022-07-30T04:20:28;10.25;;;8.38;;
56991;SDS011;42885;49.754;18.636;2022-07-30T04:22:53;10.53;;;8.95;;
56991;SDS011;42885;49.754;18.636;2022-07-30T04:25:26;9.43;;;8.53;;
56991;SDS011;42885;49.754;18.636;2022-07-30T04:27:58;9.55;;;8.58;;
56991;SDS011;42885;49.754;18.636;2022-07-30T04:30:32;10.13;;;9.03;;
56991;SDS011;42885;49.754;18.636;2022-07-30T04:33:04;10.65;;;8.65;;
56991;SDS011;42885;49.754;18.636;2022-07-30T04:35:40;11.63;;;8.95;;
56991;SDS011;42885;49.754;18.636;2022-07-30T04:38:19;11.53;;;10.05;;
56991;SDS011;42885;49.754;18.636;2022-07-30T04:40:51;19.77;;;11.68;;
56991;SDS011;42885;49.754;18.636;2022-07-30T04:43:22;13.88;;;11.70;;
56991;SDS011;42885;49.754;18.636;2022-07-30T04:45:53;15.45;;;11.73;;
56991;SDS011;42885;49.754;18.636;2022-07-30T04:48:25;13.78;;;12.40;;
56991;SDS011;42885;49.754;18.636;2022-07-30T04:51:15;15.25;;;13.53;;
56991;SDS011;42885;49.754;18.636;2022-07-30T04:53:44;14.20;;;12.78;;
56991;SDS011;42885;49.754;18.636;2022-07-30T04:56:17;14.03;;;12.73;;
56991;SDS011;42885;49.754;18.636;2022-07-30T04:58:50;16.73;;;13.25;;
56991;SDS011;42885;49.754;18.636;2022-07-30T05:01:23;15.50;;;13.98;;
56991;SDS011;42885;49.754;18.636;2022-07-30T05:03:57;16.42;;;13.25;;
56991;SDS011;42885;49.754;18.636;2022-07-30T05:06:30;14.75;;;12.88;;
56991;SDS011;42885;49.754;18.636;2022-07-30T05:09:02;15.15;;;13.65;;
56991;SDS011;42885;49.754;18.636;2022-07-30T05:11:34;16.40;;;14.55;;
56991;SDS011;42885;49.754;18.636;2022-07-30T05:14:05;15.53;;;14.03;;
56991;SDS011;42885;49.754;18.636;2022-07-30T05:16:36;15.32;;;13.48;;
56991;SDS011;42885;49.754;18.636;2022-07-30T05:19:07;15.63;;;13.90;;
56991;SDS011;42885;49.754;18.636;2022-07-30T05:21:38;13.68;;;12.37;;
56991;SDS011;42885;49.754;18.636;2022-07-30T05:24:09;14.63;;;13.13;;
56991;SDS011;42885;49.754;18.636;2022-07-30T05:26:41;15.50;;;13.13;;
56991;SDS011;42885;49.754;18.636;2022-07-30T05:29:14;17.30;;;13.70;;
56991;SDS011;42885;49.754;18.636;2022-07-30T05:31:47;15.23;;;13.23;;
56991;SDS011;42885;49.754;18.636;2022-07-30T05:34:18;14.60;;;13.10;;
56991;SDS011;42885;49.754;18.636;2022-07-30T05:36:49;15.85;;;14.30;;
56991;SDS011;42885;49.754;18.636;2022-07-30T05:39:20;15.45;;;13.85;;
56991;SDS011;42885;49.754;18.636;2022-07-30T05:41:55;16.40;;;14.70;;
56991;SDS011;42885;49.754;18.636;2022-07-30T05:44:30;21.60;;;19.12;;
56991;SDS011;42885;49.754;18.636;2022-07-30T05:47:01;23.57;;;21.12;;
56991;SDS011;42885;49.754;18.636;2022-07-30T05:49:32;18.55;;;15.00;;
56991;SDS011;42885;49.754;18.636;2022-07-30T05:52:04;17.57;;;13.80;;
56991;SDS011;42885;49.754;18.636;2022-07-30T05:54:35;17.70;;;14.33;;
56991;SDS011;42885;49.754;18.636;2022-07-30T05:57:14;17.80;;;14.18;;
56991;SDS011;42885;49.754;18.636;2022-07-30T05:59:45;16.55;;;13.80;;
56991;SDS011;42885;49.754;18.636;2022-07-30T06:02:22;15.25;;;13.58;;
56991;SDS011;42885;49.754;18.636;2022-07-30T06:04:55;15.83;;;13.23;;
56991;SDS011;42885;49.754;18.636;2022-07-30T06:07:26;14.60;;;13.05;;
56991;SDS011;42885;49.754;18.636;2022-07-30T06:09:58;15.10;;;12.93;;
56991;SDS011;42885;49.754;18.636;2022-07-30T06:12:29;14.93;;;13.32;;
56991;SDS011;42885;49.754;18.636;2022-07-30T06:15:00;14.30;;;12.82;;
56991;SDS011;42885;49.754;18.636;2022-07-30T06:17:33;16.17;;;13.55;;
56991;SDS011;42885;49.754;18.636;2022-07-30T06:20:07;14.75;;;13.03;;
56991;SDS011;42885;49.754;18.636;2022-07-30T06:22:41;12.88;;;11.57;;
56991;SDS011;42885;49.754;18.636;2022-07-30T06:25:13;14.98;;;11.45;;
56991;SDS011;42885;49.754;18.636;2022-07-30T06:27:44;12.07;;;10.82;;
56991;SDS011;42885;49.754;18.636;2022-07-30T06:30:15;11.03;;;9.75;;
56991;SDS011;42885;49.754;18.636;2022-07-30T06:32:46;11.43;;;10.28;;
56991;SDS011;42885;49.754;18.636;2022-07-30T06:35:17;11.57;;;9.65;;
56991;SDS011;42885;49.754;18.636;2022-07-30T06:37:48;11.85;;;9.23;;
56991;SDS011;42885;49.754;18.636;2022-07-30T06:40:19;13.53;;;8.18;;
56991;SDS011;42885;49.754;18.636;2022-07-30T06:42:55;9.43;;;5.75;;
56991;SDS011;42885;49.754;18.636;2022-07-30T06:45:30;7.65;;;6.55;;
56991;SDS011;42885;49.754;18.636;2022-07-30T06:48:09;7.78;;;5.12;;
56991;SDS011;42885;49.754;18.636;2022-07-30T06:50:39;8.40;;;5.42;;
56991;SDS011;42885;49.754;18.636;2022-07-30T06:53:11;8.00;;;5.58;;
56991;SDS011;42885;49.754;18.636;2022-07-30T06:55:59;6.58;;;5.90;;
56991;SDS011;42885;49.754;18.636;2022-07-30T06:58:32;8.73;;;5.83;;
56991;SDS011;42885;49.754;18.636;2022-07-30T07:01:10;4.90;;;4.40;;
56991;SDS011;42885;49.754;18.636;2022-07-30T07:03:41;4.47;;;4.15;;
56991;SDS011;42885;49.754;18.636;2022-07-30T07:06:12;7.80;;;4.50;;
56991;SDS011;42885;49.754;18.636;2022-07-30T07:08:43;5.83;;;4.72;;
56991;SDS011;42885;49.754;18.636;2022-07-30T07:11:16;5.30;;;4.80;;
56991;SDS011;42885;49.754;18.636;2022-07-30T07:13:49;4.78;;;4.22;;
56991;SDS011;42885;49.754;18.636;2022-07-30T07:16:22;8.48;;;4.87;;
56991;SDS011;42885;49.754;18.636;2022-07-30T07:18:57;4.95;;;4.55;;
56991;SDS011;42885;49.754;18.636;2022-07-30T07:21:28;4.92;;;4.05;;
56991;SDS011;42885;49.754;18.636;2022-07-30T07:23:59;4.45;;;4.05;;
56991;SDS011;42885;49.754;18.636;2022-07-30T07:26:47;6.20;;;4.00;;
56991;SDS011;42885;49.754;18.636;2022-07-30T07:29:18;4.62;;;3.80;;
56991;SDS011;42885;49.754;18.636;2022-07-30T07:31:48;4.92;;;3.60;;
56991;SDS011;42885;49.754;18.636;2022-07-30T07:34:19;5.28;;;4.62;;
56991;SDS011;42885;49.754;18.636;2022-07-30T07:36:50;6.12;;;4.75;;
56991;SDS011;42885;49.754;18.636;2022-07-30T07:39:22;4.97;;;4.45;;
56991;SDS011;42885;49.754;18.636;2022-07-30T07:41:54;6.17;;;4.28;;
56991;SDS011;42885;49.754;18.636;2022-07-30T07:44:27;4.90;;;4.00;;
56991;SDS011;42885;49.754;18.636;2022-07-30T07:46:58;5.10;;;3.95;;
56991;SDS011;42885;49.754;18.636;2022-07-30T07:49:30;4.55;;;4.15;;
56991;SDS011;42885;49.754;18.636;2022-07-30T07:52:03;7.03;;;5.20;;
56991;SDS011;42885;49.754;18.636;2022-07-30T07:54:35;6.08;;;3.98;;
56991;SDS011;42885;49.754;18.636;2022-07-30T07:57:06;7.25;;;4.40;;
56991;SDS011;42885;49.754;18.636;2022-07-30T07:59:39;5.83;;;4.12;;
56991;SDS011;42885;49.754;18.636;2022-07-30T08:02:17;4.00;;;3.70;;
56991;SDS011;42885;49.754;18.636;2022-07-30T08:04:55;8.75;;;4.30;;
56991;SDS011;42885;49.754;18.636;2022-07-30T08:07:37;4.65;;;3.30;;
56991;SDS011;42885;49.754;18.636;2022-07-30T08:10:22;3.80;;;3.47;;
56991;SDS011;42885;49.754;18.636;2022-07-30T08:13:20;3.50;;;3.20;;
56991;SDS011;42885;49.754;18.636;2022-07-30T08:16:06;4.35;;;3.33;;
56991;SDS011;42885;49.754;18.636;2022-07-30T08:19:09;4.12;;;3.40;;
56991;SDS011;42885;49.754;18.636;2022-07-30T08:21:41;3.83;;;3.40;;
56991;SDS011;42885;49.754;18.636;2022-07-30T08:24:26;3.47;;;3.17;;
56991;SDS011;42885;49.754;18.636;2022-07-30T08:26:57;4.00;;;3.60;;
56991;SDS011;42885;49.754;18.636;2022-07-30T08:29:30;4.30;;;3.20;;
56991;SDS011;42885;49.754;18.636;2022-07-30T08:32:18;4.05;;;3.60;;
56991;SDS011;42885;49.754;18.636;2022-07-30T08:34:50;4.80;;;3.20;;
56991;SDS011;42885;49.754;18.636;2022-07-30T08:37:25;4.45;;;3.40;;
56991;SDS011;42885;49.754;18.636;2022-07-30T08:39:58;5.62;;;3.30;;
56991;SDS011;42885;49.754;18.636;2022-07-30T08:42:29;4.45;;;3.12;;
56991;SDS011;42885;49.754;18.636;2022-07-30T08:45:06;4.00;;;3.37;;
56991;SDS011;42885;49.754;18.636;2022-07-30T08:47:40;6.03;;;3.50;;
56991;SDS011;42885;49.754;18.636;2022-07-30T08:50:15;5.40;;;4.08;;
56991;SDS011;42885;49.754;18.636;2022-07-30T08:53:04;4.97;;;4.58;;
56991;SDS011;42885;49.754;18.636;2022-07-30T08:55:36;8.85;;;7.60;;
56991;SDS011;42885;49.754;18.636;2022-07-30T08:58:14;11.70;;;8.95;;
56991;SDS011;42885;49.754;18.636;2022-07-30T09:00:45;9.08;;;7.92;;
56991;SDS011;42885;49.754;18.636;2022-07-30T09:03:16;12.58;;;10.18;;
56991;SDS011;42885;49.754;18.636;2022-07-30T09:05:47;13.25;;;10.13;;
56991;SDS011;42885;49.754;18.636;2022-07-30T09:08:17;15.43;;;11.50;;
56991;SDS011;42885;49.754;18.636;2022-07-30T09:10:48;14.10;;;12.13;;
56991;SDS011;42885;49.754;18.636;2022-07-30T09:13:26;16.90;;;12.40;;
56991;SDS011;42885;49.754;18.636;2022-07-30T09:16:01;16.02;;;12.90;;
56991;SDS011;42885;49.754;18.636;2022-07-30T09:18:38;16.77;;;12.73;;
56991;SDS011;42885;49.754;18.636;2022-07-30T09:23:59;22.82;;;16.42;;
56991;SDS011;42885;49.754;18.636;2022-07-30T09:26:52;20.52;;;18.27;;
56991;SDS011;42885;49.754;18.636;2022-07-30T09:29:42;20.65;;;17.40;;
56991;SDS011;42885;49.754;18.636;2022-07-30T09:32:54;24.30;;;19.87;;
56991;SDS011;42885;49.754;18.636;2022-07-30T09:35:28;26.23;;;22.17;;
56991;SDS011;42885;49.754;18.636;2022-07-30T09:38:13;28.98;;;23.38;;
56991;SDS011;42885;49.754;18.636;2022-07-30T09:41:00;34.00;;;23.40;;
56991;SDS011;42885;49.754;18.636;2022-07-30T09:43:41;31.35;;;25.50;;
56991;SDS011;42885;49.754;18.636;2022-07-30T09:49:29;35.85;;;26.95;;
56991;SDS011;42885;49.754;18.636;2022-07-30T09:52:00;37.15;;;28.47;;
56991;SDS011;42885;49.754;18.636;2022-07-30T09:54:46;37.83;;;29.17;;
56991;SDS011;42885;49.754;18.636;2022-07-30T09:57:18;40.43;;;32.03;;
56991;SDS011;42885;49.754;18.636;2022-07-30T09:59:49;41.85;;;30.75;;
56991;SDS011;42885;49.754;18.636;2022-07-30T10:02:27;39.13;;;31.02;;
56991;SDS011;42885;49.754;18.636;2022-07-30T10:05:18;38.33;;;31.07;;
56991;SDS011;42885;49.754;18.636;2022-07-30T10:07:56;43.75;;;32.83;;
56991;SDS011;42885;49.754;18.636;2022-07-30T10:10:29;36.68;;;30.92;;
56991;SDS011;42885;49.754;18.636;2022-07-30T10:13:01;42.58;;;36.58;;
56991;SDS011;42885;49.754;18.636;2022-07-30T10:15:35;39.03;;;32.60;;
56991;SDS011;42885;49.754;18.636;2022-07-30T10:18:06;35.60;;;31.20;;
56991;SDS011;42885;49.754;18.636;2022-07-30T10:20:48;37.08;;;32.08;;
56991;SDS011;42885;49.754;18.636;2022-07-30T10:23:21;38.17;;;33.23;;
56991;SDS011;42885;49.754;18.636;2022-07-30T10:26:04;29.90;;;26.50;;
56991;SDS011;42885;49.754;18.636;2022-07-30T10:28:44;32.53;;;26.82;;
56991;SDS011;42885;49.754;18.636;2022-07-30T10:31:15;26.40;;;23.52;;
56991;SDS011;42885;49.754;18.636;2022-07-30T10:33:46;33.28;;;25.55;;
56991;SDS011;42885;49.754;18.636;2022-07-30T10:36:18;36.68;;;26.52;;
56991;SDS011;42885;49.754;18.636;2022-07-30T10:38:49;32.03;;;27.25;;
56991;SDS011;42885;49.754;18.636;2022-07-30T10:41:25;31.02;;;25.70;;
56991;SDS011;42885;49.754;18.636;2022-07-30T10:46:42;26.93;;;21.87;;
56991;SDS011;42885;49.754;18.636;2022-07-30T10:49:29;30.08;;;23.42;;
56991;SDS011;42885;49.754;18.636;2022-07-30T10:52:00;26.25;;;23.55;;
56991;SDS011;42885;49.754;18.636;2022-07-30T10:54:41;26.97;;;22.50;;
56991;SDS011;42885;49.754;18.636;2022-07-30T11:02:27;22.67;;;19.50;;
56991;SDS011;42885;49.754;18.636;2022-07-30T11:07:52;22.75;;;19.67;;
56991;SDS011;42885;49.754;18.636;2022-07-30T11:13:06;26.10;;;22.55;;
56991;SDS011;42885;49.754;18.636;2022-07-30T11:18:27;24.85;;;19.52;;
56991;SDS011;42885;49.754;18.636;2022-07-30T11:21:17;24.35;;;21.73;;
56991;SDS011;42885;49.754;18.636;2022-07-30T11:23:48;21.40;;;19.15;;
56991;SDS011;42885;49.754;18.636;2022-07-30T11:32:25;22.10;;;19.73;;
56991;SDS011;42885;49.754;18.636;2022-07-30T11:38:03;20.77;;;18.77;;
56991;SDS011;42885;49.754;18.636;2022-07-30T11:43:26;19.95;;;17.92;;
56991;SDS011;42885;49.754;18.636;2022-07-30T11:46:10;19.10;;;17.23;;
56991;SDS011;42885;49.754;18.636;2022-07-30T11:48:58;19.42;;;17.42;;
56991;SDS011;42885;49.754;18.636;2022-07-30T11:51:44;19.15;;;17.35;;
56991;SDS011;42885;49.754;18.636;2022-07-30T11:54:11;20.72;;;18.62;;
56991;SDS011;42885;49.754;18.636;2022-07-30T11:56:49;20.52;;;18.65;;
56991;SDS011;42885;49.754;18.636;2022-07-30T11:59:21;21.35;;;19.40;;
56991;SDS011;42885;49.754;18.636;2022-07-30T12:01:52;20.20;;;18.27;;
56991;SDS011;42885;49.754;18.636;2022-07-30T12:04:24;22.00;;;19.90;;
56991;SDS011;42885;49.754;18.636;2022-07-30T12:06:55;21.97;;;19.77;;
56991;SDS011;42885;49.754;18.636;2022-07-30T12:09:26;20.85;;;18.80;;
56991;SDS011;42885;49.754;18.636;2022-07-30T12:11:56;21.27;;;19.17;;
56991;SDS011;42885;49.754;18.636;2022-07-30T12:14:35;21.45;;;19.23;;
56991;SDS011;42885;49.754;18.636;2022-07-30T12:17:06;22.35;;;19.57;;
56991;SDS011;42885;49.754;18.636;2022-07-30T12:19:43;25.48;;;19.17;;
56991;SDS011;42885;49.754;18.636;2022-07-30T12:22:15;24.15;;;20.15;;
56991;SDS011;42885;49.754;18.636;2022-07-30T12:24:46;20.65;;;18.45;;
56991;SDS011;42885;49.754;18.636;2022-07-30T12:27:17;25.17;;;19.80;;
56991;SDS011;42885;49.754;18.636;2022-07-30T12:29:48;19.55;;;17.20;;
56991;SDS011;42885;49.754;18.636;2022-07-30T12:32:19;25.35;;;21.73;;
56991;SDS011;42885;49.754;18.636;2022-07-30T12:34:53;24.72;;;21.25;;
56991;SDS011;42885;49.754;18.636;2022-07-30T12:37:24;17.50;;;15.72;;
56991;SDS011;42885;49.754;18.636;2022-07-30T12:40:05;9.98;;;8.98;;
56991;SDS011;42885;49.754;18.636;2022-07-30T12:42:49;8.95;;;7.97;;
56991;SDS011;42885;49.754;18.636;2022-07-30T12:45:29;8.60;;;7.45;;
56991;SDS011;42885;49.754;18.636;2022-07-30T12:48:01;5.58;;;5.08;;
56991;SDS011;42885;49.754;18.636;2022-07-30T12:50:33;5.25;;;4.85;;
56991;SDS011;42885;49.754;18.636;2022-07-30T12:53:04;4.72;;;4.40;;
56991;SDS011;42885;49.754;18.636;2022-07-30T12:55:34;5.42;;;4.97;;
56991;SDS011;42885;49.754;18.636;2022-07-30T12:58:05;4.90;;;4.50;;
56991;SDS011;42885;49.754;18.636;2022-07-30T13:00:46;5.72;;;4.15;;
56991;SDS011;42885;49.754;18.636;2022-07-30T13:03:23;5.40;;;3.92;;
56991;SDS011;42885;49.754;18.636;2022-07-30T13:05:56;4.65;;;4.25;;
56991;SDS011;42885;49.754;18.636;2022-07-30T13:11:47;4.62;;;4.33;;
56991;SDS011;42885;49.754;18.636;2022-07-30T13:14:08;6.17;;;3.33;;
56991;SDS011;42885;49.754;18.636;2022-07-30T13:16:40;3.50;;;3.20;;
56991;SDS011;42885;49.754;18.636;2022-07-30T13:19:11;3.70;;;3.40;;
56991;SDS011;42885;49.754;18.636;2022-07-30T13:21:42;3.58;;;2.95;;
56991;SDS011;42885;49.754;18.636;2022-07-30T13:24:13;3.17;;;2.90;;
56991;SDS011;42885;49.754;18.636;2022-07-30T13:26:44;3.25;;;2.95;;
56991;SDS011;42885;49.754;18.636;2022-07-30T13:29:15;2.72;;;2.52;;
56991;SDS011;42885;49.754;18.636;2022-07-30T13:31:46;3.00;;;2.40;;
56991;SDS011;42885;49.754;18.636;2022-07-30T13:34:17;4.47;;;2.77;;
56991;SDS011;42885;49.754;18.636;2022-07-30T13:36:48;2.67;;;2.47;;
56991;SDS011;42885;49.754;18.636;2022-07-30T13:39:19;5.45;;;2.90;;
56991;SDS011;42885;49.754;18.636;2022-07-30T13:41:49;3.10;;;2.80;;
56991;SDS011;42885;49.754;18.636;2022-07-30T13:44:20;4.58;;;2.58;;
56991;SDS011;42885;49.754;18.636;2022-07-30T13:46:51;3.52;;;2.65;;
56991;SDS011;42885;49.754;18.636;2022-07-30T13:49:24;2.33;;;2.12;;
56991;SDS011;42885;49.754;18.636;2022-07-30T13:51:55;2.30;;;2.10;;
56991;SDS011;42885;49.754;18.636;2022-07-30T13:54:26;2.30;;;2.10;;
56991;SDS011;42885;49.754;18.636;2022-07-30T13:56:58;2.27;;;2.12;;
56991;SDS011;42885;49.754;18.636;2022-07-30T13:59:28;2.30;;;2.10;;
56991;SDS011;42885;49.754;18.636;2022-07-30T14:02:00;2.62;;;1.82;;
56991;SDS011;42885;49.754;18.636;2022-07-30T14:04:31;3.10;;;1.92;;
56991;SDS011;42885;49.754;18.636;2022-07-30T14:07:02;2.20;;;2.00;;
56991;SDS011;42885;49.754;18.636;2022-07-30T14:09:32;2.75;;;1.87;;
56991;SDS011;42885;49.754;18.636;2022-07-30T14:12:03;2.30;;;2.10;;
56991;SDS011;42885;49.754;18.636;2022-07-30T14:14:34;2.25;;;2.05;;
56991;SDS011;42885;49.754;18.636;2022-07-30T14:17:06;2.67;;;2.17;;
56991;SDS011;42885;49.754;18.636;2022-07-30T14:19:37;2.05;;;1.95;;
56991;SDS011;42885;49.754;18.636;2022-07-30T14:22:07;3.15;;;2.00;;
56991;SDS011;42885;49.754;18.636;2022-07-30T14:24:38;2.58;;;2.20;;
56991;SDS011;42885;49.754;18.636;2022-07-30T14:27:09;2.37;;;2.22;;
56991;SDS011;42885;49.754;18.636;2022-07-30T14:29:40;7.17;;;2.50;;
56991;SDS011;42885;49.754;18.636;2022-07-30T14:32:10;13.58;;;12.18;;
56991;SDS011;42885;49.754;18.636;2022-07-30T14:34:41;16.35;;;14.58;;
56991;SDS011;42885;49.754;18.636;2022-07-30T14:37:12;19.40;;;17.40;;
56991;SDS011;42885;49.754;18.636;2022-07-30T14:39:43;22.45;;;19.95;;
56991;SDS011;42885;49.754;18.636;2022-07-30T14:42:14;22.40;;;20.15;;
56991;SDS011;42885;49.754;18.636;2022-07-30T14:44:45;24.63;;;21.97;;
56991;SDS011;42885;49.754;18.636;2022-07-30T14:47:17;25.25;;;22.60;;
56991;SDS011;42885;49.754;18.636;2022-07-30T14:49:47;27.62;;;24.37;;
56991;SDS011;42885;49.754;18.636;2022-07-30T14:52:19;27.98;;;23.80;;
56991;SDS011;42885;49.754;18.636;2022-07-30T14:54:50;27.45;;;24.47;;
56991;SDS011;42885;49.754;18.636;2022-07-30T14:57:21;28.52;;;24.70;;
56991;SDS011;42885;49.754;18.636;2022-07-30T14:59:52;27.30;;;23.90;;
56991;SDS011;42885;49.754;18.636;2022-07-30T15:02:22;26.97;;;24.05;;
56991;SDS011;42885;49.754;18.636;2022-07-30T15:04:53;28.38;;;24.92;;
56991;SDS011;42885;49.754;18.636;2022-07-30T15:07:24;27.73;;;24.25;;
56991;SDS011;42885;49.754;18.636;2022-07-30T15:09:55;27.42;;;24.60;;
56991;SDS011;42885;49.754;18.636;2022-07-30T15:12:26;27.58;;;24.67;;
56991;SDS011;42885;49.754;18.636;2022-07-30T15:14:57;26.35;;;23.67;;
56991;SDS011;42885;49.754;18.636;2022-07-30T15:17:27;26.40;;;23.65;;
56991;SDS011;42885;49.754;18.636;2022-07-30T15:19:58;27.25;;;24.23;;
56991;SDS011;42885;49.754;18.636;2022-07-30T15:22:29;26.42;;;23.73;;
56991;SDS011;42885;49.754;18.636;2022-07-30T15:25:00;27.75;;;24.82;;
56991;SDS011;42885;49.754;18.636;2022-07-30T15:27:31;26.48;;;23.67;;
56991;SDS011;42885;49.754;18.636;2022-07-30T15:30:02;27.50;;;23.60;;
56991;SDS011;42885;49.754;18.636;2022-07-30T15:32:34;24.63;;;22.13;;
56991;SDS011;42885;49.754;18.636;2022-07-30T15:35:05;22.60;;;20.25;;
56991;SDS011;42885;49.754;18.636;2022-07-30T15:37:36;22.27;;;19.95;;
56991;SDS011;42885;49.754;18.636;2022-07-30T15:40:07;22.62;;;20.20;;